In Rescue
 
Open Full Screen Window  High Contrast Mode
Wind Gusting 00 knots
05
July 13, 2020 9:36 PM CDT
Weather Information
Wind Direction
  170 °
Wind Speed
  05 kt (6 mph)
Wind Gust
  00 kt (0 mph)
Altimeter
29.78 in
Visibility
10 SM
Temperature
25° C
77° F
Dewpoint
20° C
68° F
Humidity
74%
1hr Rain Fall
00.00 in.
24hr Rain Fall
00.00 in.
Sky Condition
Scattered @ 7,000 ft
VFR

METAR KLYV 140236Z AUTO 17005KT 10SM SCT070 25/20 A2978 RMK AO2

FAA Disclaimer: The data displayed is for advisory purposes only and is not to be used for flight planning or operations.